createdAt,value
2022-08-14T00:00:05.026Z,14.10
2022-08-14T00:02:33.835Z,14.10
2022-08-14T00:05:06.528Z,14.00
2022-08-14T00:07:42.071Z,13.80
2022-08-14T00:10:51.406Z,13.80
2022-08-14T00:13:06.881Z,13.80
2022-08-14T00:15:44.320Z,13.80
2022-08-14T00:18:30.766Z,13.90
2022-08-14T00:21:11.180Z,13.80
2022-08-14T00:23:41.629Z,13.70
2022-08-14T00:26:21.627Z,13.80
2022-08-14T00:28:51.802Z,13.70
2022-08-14T00:31:34.659Z,13.70
2022-08-14T00:34:37.376Z,13.50
2022-08-14T00:36:55.663Z,13.30
2022-08-14T00:39:29.195Z,13.40
2022-08-14T00:41:58.981Z,13.60
2022-08-14T00:44:32.039Z,13.60
2022-08-14T00:47:03.783Z,13.60
2022-08-14T00:49:37.951Z,13.50
2022-08-14T00:52:18.224Z,13.30
2022-08-14T00:54:57.852Z,13.20
2022-08-14T00:57:28.713Z,13.20
2022-08-14T00:59:57.701Z,13.20
2022-08-14T01:02:28.360Z,13.30
2022-08-14T01:05:01.657Z,13.30
2022-08-14T01:07:47.166Z,13.20
2022-08-14T01:10:25.125Z,13.10
2022-08-14T05:42:34.005Z,13.00
2022-08-14T05:45:05.698Z,14.30
2022-08-14T05:47:42.895Z,14.70
2022-08-14T05:50:18.759Z,15.10
2022-08-14T05:57:55.098Z,15.40
2022-08-14T06:00:36.881Z,16.00
2022-08-14T06:03:10.722Z,16.40
2022-08-14T06:05:39.300Z,16.50
2022-08-14T06:08:21.834Z,16.70
2022-08-14T06:11:04.789Z,16.80
2022-08-14T06:13:45.713Z,17.00
2022-08-14T06:18:52.707Z,17.30
2022-08-14T06:21:22.632Z,18.20
2022-08-14T06:23:51.465Z,18.40
2022-08-14T06:26:22.465Z,18.70
2022-08-14T06:28:51.970Z,18.60
2022-08-14T06:31:23.019Z,18.60
2022-08-14T06:35:02.813Z,18.90
2022-08-14T06:36:41.841Z,19.50
2022-08-14T06:39:10.899Z,19.90
2022-08-14T06:41:59.248Z,19.90
2022-08-14T06:44:32.440Z,20.10
2022-08-14T06:47:02.174Z,20.10
2022-08-14T06:49:43.524Z,19.90
2022-08-14T06:52:15.421Z,20.00
2022-08-14T06:54:44.893Z,20.20
2022-08-14T06:57:14.225Z,20.40
2022-08-14T06:59:42.502Z,19.80
2022-08-14T07:02:28.904Z,20.00
2022-08-14T07:05:20.961Z,20.00
2022-08-14T07:07:52.053Z,20.50
2022-08-14T07:10:24.746Z,20.60
2022-08-14T07:13:03.757Z,21.00
2022-08-14T07:18:09.343Z,21.10
2022-08-14T07:20:40.181Z,21.90
2022-08-14T07:23:20.943Z,22.00
2022-08-14T07:25:53.796Z,21.60
2022-08-14T07:28:25.267Z,21.70
2022-08-14T07:31:04.420Z,21.70
2022-08-14T07:33:36.188Z,21.50
2022-08-14T07:36:27.308Z,22.00
2022-08-14T07:38:58.091Z,22.30
2022-08-14T07:41:31.432Z,22.70
2022-08-14T07:44:29.326Z,22.70
2022-08-14T07:46:51.244Z,23.40
2022-08-14T07:49:19.917Z,23.90
2022-08-14T07:51:50.747Z,24.30
2022-08-14T07:54:23.359Z,24.50
2022-08-14T07:56:59.843Z,23.00
2022-08-14T07:59:41.363Z,23.30
2022-08-14T08:02:17.075Z,24.20
2022-08-14T08:04:54.080Z,24.20
2022-08-14T08:07:29.432Z,23.90
2022-08-14T08:10:00.779Z,23.80
2022-08-14T08:12:32.429Z,23.50
2022-08-14T08:15:07.666Z,23.70
2022-08-14T08:17:38.608Z,23.90
2022-08-14T08:20:19.919Z,24.50
2022-08-14T08:22:55.847Z,24.60
2022-08-14T08:25:25.407Z,25.00
2022-08-14T08:28:08.043Z,24.70
2022-08-14T08:30:49.689Z,25.30
2022-08-14T08:33:19.332Z,25.30
2022-08-14T08:35:50.741Z,24.20
2022-08-14T08:39:14.739Z,24.60
2022-08-14T08:41:12.908Z,24.60
2022-08-14T08:43:45.941Z,24.60
2022-08-14T08:46:23.483Z,25.70
2022-08-14T08:51:25.170Z,27.00
2022-08-14T08:54:03.192Z,25.80
2022-08-14T08:56:40.190Z,25.60
2022-08-14T08:59:20.870Z,26.10
2022-08-14T09:01:56.373Z,26.30
2022-08-14T09:04:27.220Z,27.30
2022-08-14T09:07:09.096Z,27.70
2022-08-14T09:09:54.008Z,28.30
2022-08-14T09:12:32.103Z,27.90
2022-08-14T09:15:02.408Z,28.10
2022-08-14T09:17:33.401Z,27.00
2022-08-14T09:20:04.119Z,27.20
2022-08-14T09:22:36.712Z,26.60
2022-08-14T09:25:19.472Z,26.70
2022-08-14T09:27:49.339Z,25.90
2022-08-14T09:30:33.020Z,26.40
2022-08-14T09:33:24.330Z,27.00
2022-08-14T09:36:18.731Z,28.00
2022-08-14T09:38:59.165Z,28.70
2022-08-14T09:42:21.104Z,29.00
2022-08-14T09:44:46.085Z,28.80
2022-08-14T09:47:18.746Z,28.80
2022-08-14T09:49:53.049Z,29.20
2022-08-14T09:52:33.788Z,29.20
2022-08-14T09:55:19.740Z,29.50
2022-08-14T09:57:52.039Z,29.60
2022-08-14T10:00:43.513Z,30.00
2022-08-14T10:03:13.179Z,29.90
2022-08-14T10:08:26.122Z,30.10
2022-08-14T10:11:02.574Z,30.60
2022-08-14T10:13:52.737Z,31.20
2022-08-14T10:19:07.660Z,31.40
2022-08-14T10:21:58.842Z,30.70
2022-08-14T10:24:36.750Z,29.50
2022-08-14T10:27:16.371Z,29.00
2022-08-14T10:29:52.576Z,28.70
2022-08-14T10:32:36.196Z,29.00
2022-08-14T10:35:14.695Z,29.80
2022-08-14T10:37:49.886Z,30.70
2022-08-14T10:40:38.711Z,30.70
2022-08-14T10:43:23.316Z,31.00
2022-08-14T10:46:03.578Z,31.20
2022-08-14T10:48:58.537Z,31.00
2022-08-14T10:51:30.033Z,30.60
2022-08-14T10:54:01.934Z,30.80
2022-08-14T10:56:45.555Z,30.90
2022-08-14T10:59:16.560Z,31.60
2022-08-14T11:01:46.690Z,31.70
2022-08-14T11:04:30.280Z,31.70
2022-08-14T11:06:59.838Z,32.00
2022-08-14T11:09:31.723Z,32.30
2022-08-14T11:12:33.928Z,31.70
2022-08-14T11:15:02.082Z,32.10
2022-08-14T11:17:33.172Z,31.80
2022-08-14T11:20:14.084Z,32.00
2022-08-14T11:23:03.185Z,32.20
2022-08-14T11:25:36.714Z,32.80
2022-08-14T11:28:14.691Z,32.90
2022-08-14T11:30:53.683Z,32.90
2022-08-14T11:33:25.473Z,32.20
2022-08-14T11:35:53.868Z,32.00
2022-08-14T11:38:29.133Z,31.80
2022-08-14T11:41:00.380Z,31.00
2022-08-14T11:43:30.628Z,30.20
2022-08-14T11:46:03.694Z,30.70
2022-08-14T11:49:02.200Z,30.90
2022-08-14T11:51:50.909Z,31.10
2022-08-14T11:54:34.954Z,31.00
2022-08-14T11:57:04.471Z,31.00
2022-08-14T11:59:34.158Z,30.70
2022-08-14T12:03:00.440Z,30.20
2022-08-14T12:05:00.640Z,30.50
2022-08-14T12:07:33.698Z,30.70
2022-08-14T12:10:26.938Z,30.40
2022-08-14T12:12:54.885Z,30.20
2022-08-14T12:15:36.028Z,30.70
2022-08-14T12:18:04.917Z,30.70
2022-08-14T12:20:37.533Z,30.70
2022-08-14T12:23:23.537Z,30.90
2022-08-14T12:26:31.777Z,30.40
2022-08-14T12:29:00.105Z,30.40
2022-08-14T12:31:28.731Z,30.30
2022-08-14T12:34:20.673Z,30.20
2022-08-14T12:37:05.617Z,30.00
2022-08-14T12:39:40.058Z,29.80
2022-08-14T12:42:11.921Z,29.70
2022-08-14T12:44:59.914Z,29.90
2022-08-14T12:47:32.436Z,30.00
2022-08-14T12:50:02.343Z,29.40
2022-08-14T12:52:42.971Z,29.10
2022-08-14T12:55:22.411Z,29.30
2022-08-14T12:58:28.621Z,29.30
2022-08-14T13:01:14.290Z,29.10
2022-08-14T13:03:42.638Z,29.10
2022-08-14T13:06:14.681Z,28.90
2022-08-14T13:08:53.103Z,29.00
2022-08-14T13:11:24.004Z,29.10
2022-08-14T13:13:59.628Z,29.00
2022-08-14T13:16:37.960Z,29.20
2022-08-14T13:19:11.213Z,29.40
2022-08-14T13:22:05.427Z,29.80
2022-08-14T13:24:33.415Z,29.60
2022-08-14T13:27:04.753Z,29.10
2022-08-14T13:29:39.663Z,29.00
2022-08-14T13:32:11.027Z,29.00
2022-08-14T13:34:41.103Z,29.20
2022-08-14T13:37:09.633Z,29.10
2022-08-14T13:39:40.117Z,29.10
2022-08-14T13:42:13.767Z,29.40
2022-08-14T13:44:43.201Z,29.50
2022-08-14T13:47:15.257Z,29.80
2022-08-14T13:49:57.606Z,29.70
2022-08-14T13:52:52.652Z,29.60
2022-08-14T13:55:21.722Z,29.30
2022-08-14T13:58:04.579Z,29.10
2022-08-14T14:00:52.899Z,29.10
2022-08-14T14:03:23.516Z,29.30
2022-08-14T14:05:54.904Z,29.30
2022-08-14T14:08:43.277Z,29.40
2022-08-14T14:11:15.914Z,29.00
2022-08-14T14:13:45.337Z,29.10
2022-08-14T14:16:15.451Z,29.10
2022-08-14T14:18:56.050Z,29.10
2022-08-14T14:21:26.615Z,29.40
2022-08-14T14:23:58.049Z,29.70
2022-08-14T14:26:29.272Z,29.80
2022-08-14T14:29:02.644Z,29.90
2022-08-14T14:31:32.560Z,29.70
2022-08-14T14:34:07.686Z,29.80
2022-08-14T14:36:52.748Z,29.60
2022-08-14T14:39:27.595Z,29.60
2022-08-14T14:42:00.806Z,29.40
2022-08-14T14:44:40.308Z,29.20
2022-08-14T14:47:13.881Z,29.10
2022-08-14T14:49:54.633Z,29.00
2022-08-14T14:52:27.561Z,28.90
2022-08-14T14:54:57.694Z,28.80
2022-08-14T14:57:35.582Z,28.80
2022-08-14T15:00:06.839Z,29.10
2022-08-14T15:02:38.393Z,29.50
2022-08-14T15:05:08.121Z,30.00
2022-08-14T15:07:36.945Z,29.90
2022-08-14T15:10:26.387Z,29.90
2022-08-14T15:12:57.786Z,30.00
2022-08-14T15:15:28.658Z,30.10
2022-08-14T15:18:01.296Z,29.90
2022-08-14T15:20:31.469Z,30.00
2022-08-14T15:23:08.072Z,29.60
2022-08-14T15:25:41.392Z,29.50
2022-08-14T15:28:13.163Z,30.00
2022-08-14T15:30:57.707Z,29.90
2022-08-14T15:34:33.238Z,30.00
2022-08-14T15:36:30.141Z,29.90
2022-08-14T15:38:59.619Z,29.50
2022-08-14T15:41:41.326Z,28.80
2022-08-14T15:44:25.463Z,28.60
2022-08-14T15:46:55.703Z,28.20
2022-08-14T15:49:34.434Z,28.00
2022-08-14T15:52:05.035Z,28.10
2022-08-14T15:54:33.939Z,28.00
2022-08-14T15:57:06.063Z,27.80
2022-08-14T15:59:57.276Z,27.50
2022-08-14T16:02:28.485Z,27.60
2022-08-14T16:04:56.804Z,27.70
2022-08-14T16:07:27.184Z,27.70
2022-08-14T16:10:27.617Z,27.60
2022-08-14T16:12:52.450Z,27.60
2022-08-14T16:15:24.284Z,27.40
2022-08-14T16:18:01.435Z,27.20
2022-08-14T16:20:42.595Z,27.10
2022-08-14T16:23:13.560Z,26.80
2022-08-14T16:25:44.557Z,26.60
2022-08-14T16:28:27.430Z,26.50
2022-08-14T16:30:57.643Z,26.40
2022-08-14T16:33:56.475Z,26.40
2022-08-14T16:36:30.428Z,26.30
2022-08-14T16:39:00.298Z,26.20
2022-08-14T16:41:29.459Z,26.20
2022-08-14T16:44:01.907Z,26.10
2022-08-14T16:46:35.311Z,26.10
2022-08-14T16:49:05.680Z,26.00
2022-08-14T16:51:38.397Z,26.00
2022-08-14T16:54:10.635Z,26.00
2022-08-14T16:56:49.664Z,26.00
2022-08-14T16:59:30.567Z,25.90
2022-08-14T17:02:14.109Z,26.00
2022-08-14T17:04:49.168Z,26.00
2022-08-14T17:07:17.682Z,25.90
2022-08-14T17:09:48.931Z,26.00
2022-08-14T17:12:29.096Z,25.90
2022-08-14T17:15:10.871Z,25.90
2022-08-14T17:17:57.878Z,25.80
2022-08-14T17:20:44.419Z,25.90
2022-08-14T17:23:16.368Z,25.80
2022-08-14T17:25:49.341Z,25.80
2022-08-14T17:28:51.971Z,25.80
2022-08-14T17:31:10.121Z,25.70
2022-08-14T17:33:44.641Z,25.70
2022-08-14T17:36:23.955Z,25.60
2022-08-14T17:39:06.178Z,25.60
2022-08-14T17:41:38.714Z,25.50
2022-08-14T17:44:33.810Z,25.50
2022-08-14T17:47:10.621Z,25.30
2022-08-14T17:49:53.877Z,25.20
2022-08-14T17:57:59.924Z,25.10
2022-08-14T18:00:28.650Z,24.80
2022-08-14T18:03:00.151Z,24.70
2022-08-14T18:06:09.598Z,24.70
2022-08-14T18:08:32.085Z,24.70
2022-08-14T18:11:03.251Z,24.60
2022-08-14T18:13:49.772Z,24.50
2022-08-14T18:16:22.823Z,24.50
2022-08-14T18:18:52.172Z,24.40
2022-08-14T18:21:42.273Z,24.30
2022-08-14T18:24:28.258Z,24.20
2022-08-14T18:27:08.621Z,24.10
2022-08-14T18:29:54.824Z,24.00
2022-08-14T18:32:47.534Z,24.00
2022-08-14T18:35:46.249Z,23.90
2022-08-14T18:38:25.450Z,23.80
2022-08-14T18:40:56.315Z,23.80
2022-08-14T18:43:59.102Z,23.80
2022-08-14T18:46:59.808Z,23.80
2022-08-14T18:49:17.806Z,23.70
2022-08-14T18:51:47.076Z,23.60
2022-08-14T18:54:38.429Z,23.70
2022-08-14T18:57:08.972Z,23.70
2022-08-14T18:59:43.128Z,23.70
2022-08-14T19:02:44.490Z,23.60
2022-08-14T19:05:14.424Z,23.60
2022-08-14T19:07:48.188Z,23.60
2022-08-14T19:10:31.629Z,23.50
2022-08-14T19:13:12.271Z,23.50
2022-08-14T19:15:43.926Z,23.50
2022-08-14T19:18:26.644Z,23.40
2022-08-14T19:20:58.328Z,23.40
2022-08-14T19:23:44.242Z,23.40
2022-08-14T19:26:36.932Z,23.40
2022-08-14T19:29:37.466Z,23.30
2022-08-14T19:32:39.750Z,23.40
2022-08-14T19:35:50.005Z,23.30
2022-08-14T19:38:54.224Z,23.20
2022-08-14T19:41:29.689Z,23.20
2022-08-14T19:44:10.936Z,23.20
2022-08-14T19:47:00.537Z,23.00
2022-08-14T19:50:08.357Z,23.00
2022-08-14T19:52:24.542Z,23.10
2022-08-14T19:54:54.361Z,23.00
2022-08-14T19:57:24.964Z,23.00
2022-08-14T20:00:28.754Z,23.00
2022-08-14T20:03:10.586Z,23.00
2022-08-14T20:05:43.103Z,23.00
2022-08-14T20:11:07.295Z,23.00
2022-08-14T20:11:43.394Z,23.00
2022-08-14T20:13:58.945Z,23.00
2022-08-14T20:16:35.415Z,23.00
2022-08-14T20:19:23.223Z,22.90
2022-08-14T20:22:04.726Z,22.90
2022-08-14T20:24:44.464Z,22.80
2022-08-14T20:27:33.651Z,22.80
2022-08-14T20:30:29.057Z,22.80
2022-08-14T20:32:58.593Z,22.80
2022-08-14T20:35:35.700Z,22.80
2022-08-14T20:38:31.232Z,22.70
2022-08-14T20:40:58.972Z,22.70
2022-08-14T20:43:46.826Z,22.80
2022-08-14T20:46:17.117Z,22.80
2022-08-14T20:49:01.337Z,22.80
2022-08-14T20:51:37.078Z,22.70
2022-08-14T20:54:09.596Z,22.70
2022-08-14T20:56:40.776Z,22.70
2022-08-14T20:59:18.155Z,22.70
2022-08-14T21:01:55.170Z,22.70
2022-08-14T21:04:33.426Z,22.70
2022-08-14T21:07:24.675Z,22.70
2022-08-14T21:10:33.240Z,22.70
2022-08-14T21:13:25.984Z,22.70
2022-08-14T21:15:57.401Z,22.70
2022-08-14T21:18:29.770Z,22.70
2022-08-14T21:20:59.954Z,22.70
2022-08-14T21:23:32.785Z,22.60
2022-08-14T21:26:03.668Z,22.60
2022-08-14T21:28:35.552Z,22.60
2022-08-14T21:31:05.536Z,22.60
2022-08-14T21:36:21.657Z,22.50
2022-08-14T21:38:51.038Z,22.50
2022-08-14T21:41:42.534Z,22.50
2022-08-14T21:44:17.426Z,22.60
2022-08-14T21:46:53.340Z,22.60
2022-08-14T21:49:38.330Z,22.60
2022-08-14T21:55:09.338Z,22.60
2022-08-14T21:57:55.719Z,22.50
2022-08-14T22:05:40.384Z,22.50
2022-08-14T22:08:12.470Z,22.40
2022-08-14T22:10:44.839Z,22.50
2022-08-14T22:13:16.908Z,22.50
2022-08-14T22:15:49.619Z,22.50
2022-08-14T22:18:21.138Z,22.50
2022-08-14T22:20:56.679Z,22.50
2022-08-14T22:23:37.535Z,22.50
2022-08-14T22:26:07.829Z,22.40
2022-08-14T22:28:37.683Z,22.30
2022-08-14T22:31:10.507Z,22.30
2022-08-14T22:33:43.029Z,22.20
2022-08-14T22:36:33.634Z,22.20
2022-08-14T22:39:03.375Z,22.10
2022-08-14T22:41:42.652Z,22.00
2022-08-14T22:44:15.350Z,22.00
2022-08-14T22:46:45.250Z,22.00
2022-08-14T22:49:15.559Z,22.10
2022-08-14T22:51:48.581Z,22.00
2022-08-14T22:54:53.065Z,22.10
2022-08-14T22:57:10.407Z,22.00
2022-08-14T22:59:39.775Z,22.00
2022-08-14T23:02:13.677Z,21.90
2022-08-14T23:04:54.500Z,21.90
2022-08-14T23:08:58.839Z,21.80
2022-08-14T23:10:31.929Z,21.70
2022-08-14T23:13:05.152Z,21.60
2022-08-14T23:15:35.142Z,21.60
2022-08-14T23:18:07.371Z,21.70
2022-08-14T23:20:44.441Z,21.60
2022-08-14T23:23:22.866Z,21.60
2022-08-14T23:25:59.815Z,21.60
2022-08-14T23:28:34.676Z,21.50
2022-08-14T23:31:34.377Z,21.50
2022-08-14T23:34:06.922Z,21.50
2022-08-14T23:36:54.503Z,21.50
2022-08-14T23:39:30.121Z,21.50
2022-08-14T23:42:02.278Z,21.50
2022-08-14T23:44:35.060Z,21.50
2022-08-14T23:47:11.533Z,21.50
2022-08-14T23:49:59.928Z,21.60
2022-08-14T23:52:56.162Z,21.50
2022-08-14T23:55:22.640Z,21.50
2022-08-14T23:57:58.345Z,21.60
